sensor_id;sensor_type;location;lat;lon;timestamp;P1;durP1;ratioP1;P2;durP2;ratioP2
66667;SDS011;57205;51.438;-2.006;2022-08-07T00:00:20;9.27;;;5.40;;
66667;SDS011;57205;51.438;-2.006;2022-08-07T00:02:45;9.48;;;5.72;;
66667;SDS011;57205;51.438;-2.006;2022-08-07T00:05:11;9.38;;;5.82;;
66667;SDS011;57205;51.438;-2.006;2022-08-07T00:07:36;9.90;;;6.28;;
66667;SDS011;57205;51.438;-2.006;2022-08-07T00:10:02;9.05;;;5.25;;
66667;SDS011;57205;51.438;-2.006;2022-08-07T00:12:28;8.80;;;5.70;;
66667;SDS011;57205;51.438;-2.006;2022-08-07T00:14:54;11.55;;;5.88;;
66667;SDS011;57205;51.438;-2.006;2022-08-07T00:17:19;11.13;;;6.72;;
66667;SDS011;57205;51.438;-2.006;2022-08-07T00:19:45;13.82;;;6.53;;
66667;SDS011;57205;51.438;-2.006;2022-08-07T00:22:11;8.48;;;5.88;;
66667;SDS011;57205;51.438;-2.006;2022-08-07T00:24:36;10.20;;;5.97;;
66667;SDS011;57205;51.438;-2.006;2022-08-07T00:27:02;11.88;;;6.25;;
66667;SDS011;57205;51.438;-2.006;2022-08-07T00:29:28;11.98;;;5.90;;
66667;SDS011;57205;51.438;-2.006;2022-08-07T00:31:54;11.90;;;6.20;;
66667;SDS011;57205;51.438;-2.006;2022-08-07T00:34:23;10.98;;;6.18;;
66667;SDS011;57205;51.438;-2.006;2022-08-07T00:36:50;10.32;;;5.95;;
66667;SDS011;57205;51.438;-2.006;2022-08-07T00:39:16;9.70;;;6.50;;
66667;SDS011;57205;51.438;-2.006;2022-08-07T00:41:51;9.50;;;6.18;;
66667;SDS011;57205;51.438;-2.006;2022-08-07T00:44:20;8.43;;;5.45;;
66667;SDS011;57205;51.438;-2.006;2022-08-07T00:46:46;9.55;;;5.88;;
66667;SDS011;57205;51.438;-2.006;2022-08-07T00:49:11;10.80;;;6.18;;
66667;SDS011;57205;51.438;-2.006;2022-08-07T00:51:37;9.73;;;5.60;;
66667;SDS011;57205;51.438;-2.006;2022-08-07T00:54:03;12.38;;;6.50;;
66667;SDS011;57205;51.438;-2.006;2022-08-07T00:56:29;10.32;;;6.03;;
66667;SDS011;57205;51.438;-2.006;2022-08-07T00:58:55;8.55;;;5.82;;
66667;SDS011;57205;51.438;-2.006;2022-08-07T01:01:20;9.45;;;6.47;;
66667;SDS011;57205;51.438;-2.006;2022-08-07T01:03:47;12.38;;;5.82;;
66667;SDS011;57205;51.438;-2.006;2022-08-07T01:06:14;11.07;;;6.47;;
66667;SDS011;57205;51.438;-2.006;2022-08-07T01:08:40;12.85;;;5.68;;
66667;SDS011;57205;51.438;-2.006;2022-08-07T01:11:05;10.05;;;6.40;;
66667;SDS011;57205;51.438;-2.006;2022-08-07T01:13:32;11.57;;;6.30;;
66667;SDS011;57205;51.438;-2.006;2022-08-07T01:15:58;10.98;;;7.00;;
66667;SDS011;57205;51.438;-2.006;2022-08-07T01:18:25;12.30;;;6.55;;
66667;SDS011;57205;51.438;-2.006;2022-08-07T01:21:04;12.45;;;7.53;;
66667;SDS011;57205;51.438;-2.006;2022-08-07T01:23:34;10.23;;;6.65;;
66667;SDS011;57205;51.438;-2.006;2022-08-07T01:26:01;14.68;;;6.63;;
66667;SDS011;57205;51.438;-2.006;2022-08-07T01:28:27;13.45;;;7.05;;
66667;SDS011;57205;51.438;-2.006;2022-08-07T01:30:53;14.23;;;6.90;;
66667;SDS011;57205;51.438;-2.006;2022-08-07T01:33:20;12.65;;;6.43;;
66667;SDS011;57205;51.438;-2.006;2022-08-07T01:35:46;10.95;;;6.15;;
66667;SDS011;57205;51.438;-2.006;2022-08-07T01:38:11;9.77;;;6.03;;
66667;SDS011;57205;51.438;-2.006;2022-08-07T01:40:38;9.35;;;5.75;;
66667;SDS011;57205;51.438;-2.006;2022-08-07T01:43:04;8.75;;;6.20;;
66667;SDS011;57205;51.438;-2.006;2022-08-07T01:45:31;13.07;;;6.72;;
66667;SDS011;57205;51.438;-2.006;2022-08-07T01:47:57;8.50;;;6.70;;
66667;SDS011;57205;51.438;-2.006;2022-08-07T01:50:24;11.50;;;6.78;;
66667;SDS011;57205;51.438;-2.006;2022-08-07T01:52:51;11.48;;;6.65;;
66667;SDS011;57205;51.438;-2.006;2022-08-07T01:55:23;13.93;;;7.00;;
66667;SDS011;57205;51.438;-2.006;2022-08-07T01:57:51;13.65;;;6.60;;
66667;SDS011;57205;51.438;-2.006;2022-08-07T02:00:19;12.85;;;6.40;;
66667;SDS011;57205;51.438;-2.006;2022-08-07T02:02:48;11.82;;;5.75;;
66667;SDS011;57205;51.438;-2.006;2022-08-07T02:05:20;12.63;;;6.03;;
66667;SDS011;57205;51.438;-2.006;2022-08-07T02:07:49;10.88;;;5.55;;
66667;SDS011;57205;51.438;-2.006;2022-08-07T02:10:18;10.60;;;5.30;;
66667;SDS011;57205;51.438;-2.006;2022-08-07T02:12:48;11.95;;;5.18;;
66667;SDS011;57205;51.438;-2.006;2022-08-07T02:15:16;9.07;;;5.60;;
66667;SDS011;57205;51.438;-2.006;2022-08-07T02:17:46;9.98;;;5.47;;
66667;SDS011;57205;51.438;-2.006;2022-08-07T02:20:13;9.63;;;5.57;;
66667;SDS011;57205;51.438;-2.006;2022-08-07T02:22:40;10.23;;;4.93;;
66667;SDS011;57205;51.438;-2.006;2022-08-07T02:25:07;7.97;;;4.80;;
66667;SDS011;57205;51.438;-2.006;2022-08-07T02:27:34;8.68;;;5.25;;
66667;SDS011;57205;51.438;-2.006;2022-08-07T02:30:02;12.13;;;5.25;;
66667;SDS011;57205;51.438;-2.006;2022-08-07T02:32:29;9.07;;;5.38;;
66667;SDS011;57205;51.438;-2.006;2022-08-07T02:34:57;13.70;;;5.13;;
66667;SDS011;57205;51.438;-2.006;2022-08-07T02:37:23;10.80;;;5.75;;
66667;SDS011;57205;51.438;-2.006;2022-08-07T02:39:52;8.85;;;5.15;;
66667;SDS011;57205;51.438;-2.006;2022-08-07T02:42:20;10.40;;;5.47;;
66667;SDS011;57205;51.438;-2.006;2022-08-07T02:44:47;11.48;;;5.35;;
66667;SDS011;57205;51.438;-2.006;2022-08-07T02:47:15;10.55;;;5.22;;
66667;SDS011;57205;51.438;-2.006;2022-08-07T02:49:42;9.73;;;5.55;;
66667;SDS011;57205;51.438;-2.006;2022-08-07T02:52:09;10.93;;;6.05;;
66667;SDS011;57205;51.438;-2.006;2022-08-07T02:54:40;9.00;;;5.55;;
66667;SDS011;57205;51.438;-2.006;2022-08-07T02:57:07;9.30;;;5.35;;
66667;SDS011;57205;51.438;-2.006;2022-08-07T02:59:37;13.45;;;5.15;;
66667;SDS011;57205;51.438;-2.006;2022-08-07T03:02:06;10.10;;;5.68;;
66667;SDS011;57205;51.438;-2.006;2022-08-07T03:04:33;7.47;;;5.03;;
66667;SDS011;57205;51.438;-2.006;2022-08-07T03:07:00;9.32;;;5.45;;
66667;SDS011;57205;51.438;-2.006;2022-08-07T03:09:26;7.40;;;5.30;;
66667;SDS011;57205;51.438;-2.006;2022-08-07T03:11:51;9.85;;;5.93;;
66667;SDS011;57205;51.438;-2.006;2022-08-07T03:14:18;10.18;;;5.32;;
66667;SDS011;57205;51.438;-2.006;2022-08-07T03:16:44;10.25;;;6.00;;
66667;SDS011;57205;51.438;-2.006;2022-08-07T03:19:10;7.97;;;5.18;;
66667;SDS011;57205;51.438;-2.006;2022-08-07T03:21:36;9.15;;;5.72;;
66667;SDS011;57205;51.438;-2.006;2022-08-07T03:24:02;10.80;;;5.40;;
66667;SDS011;57205;51.438;-2.006;2022-08-07T03:26:29;8.38;;;5.70;;
66667;SDS011;57205;51.438;-2.006;2022-08-07T03:28:57;7.95;;;5.82;;
66667;SDS011;57205;51.438;-2.006;2022-08-07T03:31:25;8.45;;;5.07;;
66667;SDS011;57205;51.438;-2.006;2022-08-07T03:33:52;8.82;;;5.20;;
66667;SDS011;57205;51.438;-2.006;2022-08-07T03:36:20;10.45;;;5.57;;
66667;SDS011;57205;51.438;-2.006;2022-08-07T03:38:48;9.02;;;4.93;;
66667;SDS011;57205;51.438;-2.006;2022-08-07T03:41:16;7.57;;;5.15;;
66667;SDS011;57205;51.438;-2.006;2022-08-07T03:43:41;13.38;;;5.68;;
66667;SDS011;57205;51.438;-2.006;2022-08-07T03:46:07;9.70;;;5.30;;
66667;SDS011;57205;51.438;-2.006;2022-08-07T03:48:33;8.57;;;5.68;;
66667;SDS011;57205;51.438;-2.006;2022-08-07T03:51:01;8.48;;;4.80;;
66667;SDS011;57205;51.438;-2.006;2022-08-07T03:53:28;9.30;;;5.20;;
66667;SDS011;57205;51.438;-2.006;2022-08-07T03:55:54;7.53;;;5.18;;
66667;SDS011;57205;51.438;-2.006;2022-08-07T03:58:21;10.07;;;4.85;;
66667;SDS011;57205;51.438;-2.006;2022-08-07T04:00:48;9.23;;;5.43;;
66667;SDS011;57205;51.438;-2.006;2022-08-07T04:03:16;8.73;;;5.07;;
66667;SDS011;57205;51.438;-2.006;2022-08-07T04:05:42;8.40;;;5.00;;
66667;SDS011;57205;51.438;-2.006;2022-08-07T04:08:11;13.13;;;5.45;;
66667;SDS011;57205;51.438;-2.006;2022-08-07T04:10:41;12.43;;;5.32;;
66667;SDS011;57205;51.438;-2.006;2022-08-07T04:13:11;12.10;;;5.72;;
66667;SDS011;57205;51.438;-2.006;2022-08-07T04:15:37;9.68;;;5.15;;
66667;SDS011;57205;51.438;-2.006;2022-08-07T04:18:03;12.00;;;5.38;;
66667;SDS011;57205;51.438;-2.006;2022-08-07T04:20:28;10.80;;;5.18;;
66667;SDS011;57205;51.438;-2.006;2022-08-07T04:22:55;8.75;;;5.32;;
66667;SDS011;57205;51.438;-2.006;2022-08-07T04:25:22;10.20;;;5.00;;
66667;SDS011;57205;51.438;-2.006;2022-08-07T04:27:49;10.77;;;5.13;;
66667;SDS011;57205;51.438;-2.006;2022-08-07T04:30:15;9.40;;;4.88;;
66667;SDS011;57205;51.438;-2.006;2022-08-07T04:32:40;6.97;;;4.30;;
66667;SDS011;57205;51.438;-2.006;2022-08-07T04:35:07;8.38;;;4.90;;
66667;SDS011;57205;51.438;-2.006;2022-08-07T04:37:33;8.23;;;5.20;;
66667;SDS011;57205;51.438;-2.006;2022-08-07T04:40:00;10.73;;;5.15;;
66667;SDS011;57205;51.438;-2.006;2022-08-07T04:42:26;13.32;;;5.65;;
66667;SDS011;57205;51.438;-2.006;2022-08-07T04:44:56;9.00;;;5.18;;
66667;SDS011;57205;51.438;-2.006;2022-08-07T04:47:30;7.88;;;5.07;;
66667;SDS011;57205;51.438;-2.006;2022-08-07T04:50:24;10.85;;;4.75;;
66667;SDS011;57205;51.438;-2.006;2022-08-07T04:56:03;10.23;;;5.50;;
66667;SDS011;57205;51.438;-2.006;2022-08-07T04:58:42;10.00;;;4.93;;
66667;SDS011;57205;51.438;-2.006;2022-08-07T05:06:35;9.95;;;4.85;;
66667;SDS011;57205;51.438;-2.006;2022-08-07T05:09:11;8.23;;;4.75;;
66667;SDS011;57205;51.438;-2.006;2022-08-07T05:11:47;7.72;;;4.72;;
66667;SDS011;57205;51.438;-2.006;2022-08-07T05:14:24;8.65;;;4.75;;
66667;SDS011;57205;51.438;-2.006;2022-08-07T05:16:55;6.97;;;3.80;;
66667;SDS011;57205;51.438;-2.006;2022-08-07T05:19:23;6.60;;;4.25;;
66667;SDS011;57205;51.438;-2.006;2022-08-07T05:21:53;7.65;;;5.00;;
66667;SDS011;57205;51.438;-2.006;2022-08-07T05:24:22;8.95;;;4.22;;
66667;SDS011;57205;51.438;-2.006;2022-08-07T05:26:51;10.27;;;4.75;;
66667;SDS011;57205;51.438;-2.006;2022-08-07T05:29:21;7.07;;;3.97;;
66667;SDS011;57205;51.438;-2.006;2022-08-07T05:31:48;8.73;;;4.20;;
66667;SDS011;57205;51.438;-2.006;2022-08-07T05:34:15;12.13;;;3.90;;
66667;SDS011;57205;51.438;-2.006;2022-08-07T05:36:45;12.00;;;3.80;;
66667;SDS011;57205;51.438;-2.006;2022-08-07T05:39:12;5.25;;;3.28;;
66667;SDS011;57205;51.438;-2.006;2022-08-07T05:41:40;5.57;;;3.22;;
66667;SDS011;57205;51.438;-2.006;2022-08-07T05:44:07;9.35;;;3.30;;
66667;SDS011;57205;51.438;-2.006;2022-08-07T05:46:37;5.18;;;3.05;;
66667;SDS011;57205;51.438;-2.006;2022-08-07T05:49:05;7.10;;;3.10;;
66667;SDS011;57205;51.438;-2.006;2022-08-07T05:51:32;5.50;;;2.92;;
66667;SDS011;57205;51.438;-2.006;2022-08-07T05:53:57;13.95;;;2.72;;
66667;SDS011;57205;51.438;-2.006;2022-08-07T05:56:23;5.15;;;2.78;;
66667;SDS011;57205;51.438;-2.006;2022-08-07T05:58:50;5.57;;;3.00;;
66667;SDS011;57205;51.438;-2.006;2022-08-07T06:01:16;6.95;;;2.72;;
66667;SDS011;57205;51.438;-2.006;2022-08-07T06:03:50;4.85;;;2.50;;
66667;SDS011;57205;51.438;-2.006;2022-08-07T06:06:19;4.80;;;2.60;;
66667;SDS011;57205;51.438;-2.006;2022-08-07T06:08:45;7.45;;;2.80;;
66667;SDS011;57205;51.438;-2.006;2022-08-07T06:11:11;3.60;;;2.33;;
66667;SDS011;57205;51.438;-2.006;2022-08-07T06:13:38;5.65;;;2.80;;
66667;SDS011;57205;51.438;-2.006;2022-08-07T06:16:05;6.05;;;2.80;;
66667;SDS011;57205;51.438;-2.006;2022-08-07T06:18:31;3.85;;;2.30;;
66667;SDS011;57205;51.438;-2.006;2022-08-07T06:21:01;5.53;;;3.00;;
66667;SDS011;57205;51.438;-2.006;2022-08-07T06:23:28;5.65;;;2.33;;
66667;SDS011;57205;51.438;-2.006;2022-08-07T06:25:55;6.15;;;2.80;;
66667;SDS011;57205;51.438;-2.006;2022-08-07T06:28:22;3.95;;;2.22;;
66667;SDS011;57205;51.438;-2.006;2022-08-07T06:30:48;5.60;;;2.70;;
66667;SDS011;57205;51.438;-2.006;2022-08-07T06:33:14;4.60;;;2.78;;
66667;SDS011;57205;51.438;-2.006;2022-08-07T06:35:40;5.95;;;2.78;;
66667;SDS011;57205;51.438;-2.006;2022-08-07T06:38:06;5.03;;;2.70;;
66667;SDS011;57205;51.438;-2.006;2022-08-07T06:40:36;4.45;;;2.60;;
66667;SDS011;57205;51.438;-2.006;2022-08-07T06:43:08;5.20;;;2.70;;
66667;SDS011;57205;51.438;-2.006;2022-08-07T06:45:35;7.18;;;2.80;;
66667;SDS011;57205;51.438;-2.006;2022-08-07T06:48:01;5.70;;;2.72;;
66667;SDS011;57205;51.438;-2.006;2022-08-07T06:50:29;4.70;;;2.30;;
66667;SDS011;57205;51.438;-2.006;2022-08-07T06:52:57;4.78;;;2.58;;
66667;SDS011;57205;51.438;-2.006;2022-08-07T06:55:25;3.70;;;2.33;;
66667;SDS011;57205;51.438;-2.006;2022-08-07T06:57:56;5.13;;;2.30;;
66667;SDS011;57205;51.438;-2.006;2022-08-07T07:00:26;4.85;;;1.90;;
66667;SDS011;57205;51.438;-2.006;2022-08-07T07:02:55;5.40;;;2.15;;
66667;SDS011;57205;51.438;-2.006;2022-08-07T07:05:20;4.40;;;2.28;;
66667;SDS011;57205;51.438;-2.006;2022-08-07T07:07:46;6.63;;;2.88;;
66667;SDS011;57205;51.438;-2.006;2022-08-07T07:10:15;4.05;;;2.15;;
66667;SDS011;57205;51.438;-2.006;2022-08-07T07:12:51;7.00;;;2.25;;
66667;SDS011;57205;51.438;-2.006;2022-08-07T07:15:26;5.88;;;2.33;;
66667;SDS011;57205;51.438;-2.006;2022-08-07T07:20:41;7.10;;;2.50;;
66667;SDS011;57205;51.438;-2.006;2022-08-07T07:23:11;6.15;;;2.40;;
66667;SDS011;57205;51.438;-2.006;2022-08-07T07:25:38;6.18;;;1.98;;
66667;SDS011;57205;51.438;-2.006;2022-08-07T07:28:17;4.22;;;2.28;;
66667;SDS011;57205;51.438;-2.006;2022-08-07T07:30:52;8.48;;;2.33;;
66667;SDS011;57205;51.438;-2.006;2022-08-07T07:33:21;4.88;;;2.50;;
66667;SDS011;57205;51.438;-2.006;2022-08-07T07:35:48;5.10;;;2.05;;
66667;SDS011;57205;51.438;-2.006;2022-08-07T07:38:16;5.22;;;2.13;;
66667;SDS011;57205;51.438;-2.006;2022-08-07T07:40:47;4.47;;;2.42;;
66667;SDS011;57205;51.438;-2.006;2022-08-07T07:43:14;7.13;;;2.67;;
66667;SDS011;57205;51.438;-2.006;2022-08-07T07:45:41;5.15;;;2.22;;
66667;SDS011;57205;51.438;-2.006;2022-08-07T07:48:09;4.13;;;2.10;;
66667;SDS011;57205;51.438;-2.006;2022-08-07T07:50:39;5.57;;;2.88;;
66667;SDS011;57205;51.438;-2.006;2022-08-07T07:53:09;4.30;;;2.28;;
66667;SDS011;57205;51.438;-2.006;2022-08-07T07:55:35;5.63;;;2.28;;
66667;SDS011;57205;51.438;-2.006;2022-08-07T07:58:02;5.20;;;1.80;;
66667;SDS011;57205;51.438;-2.006;2022-08-07T08:00:29;4.47;;;1.65;;
66667;SDS011;57205;51.438;-2.006;2022-08-07T08:02:56;4.90;;;1.92;;
66667;SDS011;57205;51.438;-2.006;2022-08-07T08:05:25;4.88;;;1.70;;
66667;SDS011;57205;51.438;-2.006;2022-08-07T08:07:51;4.28;;;1.73;;
66667;SDS011;57205;51.438;-2.006;2022-08-07T08:10:17;3.25;;;1.27;;
66667;SDS011;57205;51.438;-2.006;2022-08-07T08:12:45;3.22;;;1.05;;
66667;SDS011;57205;51.438;-2.006;2022-08-07T08:15:12;3.20;;;1.20;;
66667;SDS011;57205;51.438;-2.006;2022-08-07T08:17:41;3.08;;;1.27;;
66667;SDS011;57205;51.438;-2.006;2022-08-07T08:20:08;4.07;;;1.67;;
66667;SDS011;57205;51.438;-2.006;2022-08-07T08:22:36;4.85;;;2.47;;
66667;SDS011;57205;51.438;-2.006;2022-08-07T08:25:23;4.13;;;1.50;;
66667;SDS011;57205;51.438;-2.006;2022-08-07T08:28:14;1.70;;;1.00;;
66667;SDS011;57205;51.438;-2.006;2022-08-07T08:30:43;3.40;;;1.10;;
66667;SDS011;57205;51.438;-2.006;2022-08-07T08:33:10;2.83;;;1.17;;
66667;SDS011;57205;51.438;-2.006;2022-08-07T08:35:43;4.10;;;1.30;;
66667;SDS011;57205;51.438;-2.006;2022-08-07T08:38:12;3.30;;;1.27;;
66667;SDS011;57205;51.438;-2.006;2022-08-07T08:40:43;3.65;;;1.30;;
66667;SDS011;57205;51.438;-2.006;2022-08-07T08:46:13;2.20;;;1.45;;
66667;SDS011;57205;51.438;-2.006;2022-08-07T08:48:54;2.80;;;1.42;;
66667;SDS011;57205;51.438;-2.006;2022-08-07T08:51:30;3.53;;;1.30;;
66667;SDS011;57205;51.438;-2.006;2022-08-07T08:56:54;3.20;;;1.67;;
66667;SDS011;57205;51.438;-2.006;2022-08-07T08:59:25;4.30;;;1.30;;
66667;SDS011;57205;51.438;-2.006;2022-08-07T09:02:03;5.00;;;1.58;;
66667;SDS011;57205;51.438;-2.006;2022-08-07T09:04:42;5.15;;;1.50;;
66667;SDS011;57205;51.438;-2.006;2022-08-07T09:07:25;3.85;;;1.73;;
66667;SDS011;57205;51.438;-2.006;2022-08-07T09:19:33;5.20;;;1.40;;
66667;SDS011;57205;51.438;-2.006;2022-08-07T09:22:12;5.22;;;1.45;;
66667;SDS011;57205;51.438;-2.006;2022-08-07T09:33:51;3.90;;;1.30;;
66667;SDS011;57205;51.438;-2.006;2022-08-07T09:39:38;4.25;;;1.42;;
66667;SDS011;57205;51.438;-2.006;2022-08-07T09:53:41;3.65;;;1.60;;
66667;SDS011;57205;51.438;-2.006;2022-08-07T10:10:08;3.08;;;1.20;;
66667;SDS011;57205;51.438;-2.006;2022-08-07T10:21:23;2.80;;;1.27;;
66667;SDS011;57205;51.438;-2.006;2022-08-07T10:27:08;4.13;;;1.98;;
66667;SDS011;57205;51.438;-2.006;2022-08-07T10:35:20;7.22;;;1.75;;
66667;SDS011;57205;51.438;-2.006;2022-08-07T10:43:21;7.60;;;4.35;;
66667;SDS011;57205;51.438;-2.006;2022-08-07T10:45:54;4.38;;;1.55;;
66667;SDS011;57205;51.438;-2.006;2022-08-07T10:54:07;3.88;;;1.35;;
66667;SDS011;57205;51.438;-2.006;2022-08-07T10:56:42;2.85;;;1.38;;
66667;SDS011;57205;51.438;-2.006;2022-08-07T11:10:07;7.60;;;1.73;;
66667;SDS011;57205;51.438;-2.006;2022-08-07T11:12:48;3.35;;;1.30;;
66667;SDS011;57205;51.438;-2.006;2022-08-07T11:15:35;6.70;;;3.27;;
66667;SDS011;57205;51.438;-2.006;2022-08-07T11:18:17;2.95;;;1.50;;
66667;SDS011;57205;51.438;-2.006;2022-08-07T11:23:56;4.35;;;1.58;;
66667;SDS011;57205;51.438;-2.006;2022-08-07T11:27:11;5.43;;;1.63;;
66667;SDS011;57205;51.438;-2.006;2022-08-07T11:29:40;3.90;;;1.50;;
66667;SDS011;57205;51.438;-2.006;2022-08-07T11:32:17;2.53;;;1.33;;
66667;SDS011;57205;51.438;-2.006;2022-08-07T11:34:53;3.95;;;1.65;;
66667;SDS011;57205;51.438;-2.006;2022-08-07T11:39:59;4.25;;;1.50;;
66667;SDS011;57205;51.438;-2.006;2022-08-07T11:45:43;6.90;;;2.72;;
66667;SDS011;57205;51.438;-2.006;2022-08-07T11:48:21;8.68;;;1.80;;
66667;SDS011;57205;51.438;-2.006;2022-08-07T11:56:44;4.60;;;1.50;;
66667;SDS011;57205;51.438;-2.006;2022-08-07T12:02:16;2.65;;;1.30;;
66667;SDS011;57205;51.438;-2.006;2022-08-07T12:07:54;5.38;;;2.92;;
66667;SDS011;57205;51.438;-2.006;2022-08-07T12:10:51;2.25;;;1.23;;
66667;SDS011;57205;51.438;-2.006;2022-08-07T12:13:43;6.82;;;1.42;;
66667;SDS011;57205;51.438;-2.006;2022-08-07T12:16:15;5.95;;;2.70;;
66667;SDS011;57205;51.438;-2.006;2022-08-07T12:18:47;4.40;;;1.80;;
66667;SDS011;57205;51.438;-2.006;2022-08-07T12:22:16;3.15;;;1.40;;
66667;SDS011;57205;51.438;-2.006;2022-08-07T12:27:34;8.00;;;5.43;;
66667;SDS011;57205;51.438;-2.006;2022-08-07T12:30:05;5.30;;;3.05;;
66667;SDS011;57205;51.438;-2.006;2022-08-07T12:32:33;4.15;;;1.40;;
66667;SDS011;57205;51.438;-2.006;2022-08-07T12:35:05;5.45;;;1.50;;
66667;SDS011;57205;51.438;-2.006;2022-08-07T12:37:34;2.35;;;1.20;;
66667;SDS011;57205;51.438;-2.006;2022-08-07T12:40:02;3.63;;;1.25;;
66667;SDS011;57205;51.438;-2.006;2022-08-07T12:42:30;4.38;;;1.35;;
66667;SDS011;57205;51.438;-2.006;2022-08-07T12:44:57;2.97;;;1.40;;
66667;SDS011;57205;51.438;-2.006;2022-08-07T12:47:46;4.13;;;1.77;;
66667;SDS011;57205;51.438;-2.006;2022-08-07T12:50:31;3.40;;;1.30;;
66667;SDS011;57205;51.438;-2.006;2022-08-07T12:58:49;10.07;;;2.05;;
66667;SDS011;57205;51.438;-2.006;2022-08-07T13:06:58;2.97;;;0.98;;
66667;SDS011;57205;51.438;-2.006;2022-08-07T13:12:50;9.02;;;3.75;;
66667;SDS011;57205;51.438;-2.006;2022-08-07T13:15:15;4.78;;;1.33;;
66667;SDS011;57205;51.438;-2.006;2022-08-07T13:20:31;6.28;;;1.30;;
66667;SDS011;57205;51.438;-2.006;2022-08-07T13:23:05;6.55;;;2.80;;
66667;SDS011;57205;51.438;-2.006;2022-08-07T13:25:40;9.82;;;5.38;;
66667;SDS011;57205;51.438;-2.006;2022-08-07T13:28:11;3.97;;;1.45;;
66667;SDS011;57205;51.438;-2.006;2022-08-07T13:30:48;5.00;;;1.60;;
66667;SDS011;57205;51.438;-2.006;2022-08-07T13:36:04;3.58;;;1.17;;
66667;SDS011;57205;51.438;-2.006;2022-08-07T13:38:38;3.65;;;1.63;;
66667;SDS011;57205;51.438;-2.006;2022-08-07T13:44:00;3.97;;;1.52;;
66667;SDS011;57205;51.438;-2.006;2022-08-07T13:46:32;3.75;;;1.38;;
66667;SDS011;57205;51.438;-2.006;2022-08-07T13:49:01;3.20;;;1.75;;
66667;SDS011;57205;51.438;-2.006;2022-08-07T13:51:29;3.25;;;1.17;;
66667;SDS011;57205;51.438;-2.006;2022-08-07T13:53:59;2.83;;;1.48;;
66667;SDS011;57205;51.438;-2.006;2022-08-07T13:56:28;4.45;;;1.60;;
66667;SDS011;57205;51.438;-2.006;2022-08-07T13:58:54;3.60;;;0.88;;
66667;SDS011;57205;51.438;-2.006;2022-08-07T14:01:25;2.47;;;1.38;;
66667;SDS011;57205;51.438;-2.006;2022-08-07T14:04:10;3.35;;;1.00;;
66667;SDS011;57205;51.438;-2.006;2022-08-07T14:06:39;2.38;;;1.05;;
66667;SDS011;57205;51.438;-2.006;2022-08-07T14:09:09;3.03;;;1.20;;
66667;SDS011;57205;51.438;-2.006;2022-08-07T14:11:43;5.47;;;2.20;;
66667;SDS011;57205;51.438;-2.006;2022-08-07T14:14:13;2.40;;;1.20;;
66667;SDS011;57205;51.438;-2.006;2022-08-07T14:16:42;2.22;;;1.10;;
66667;SDS011;57205;51.438;-2.006;2022-08-07T14:22:02;3.88;;;1.00;;
66667;SDS011;57205;51.438;-2.006;2022-08-07T14:24:41;2.42;;;1.48;;
66667;SDS011;57205;51.438;-2.006;2022-08-07T14:27:10;7.95;;;5.05;;
66667;SDS011;57205;51.438;-2.006;2022-08-07T14:29:43;5.05;;;1.50;;
66667;SDS011;57205;51.438;-2.006;2022-08-07T14:32:13;2.42;;;1.13;;
66667;SDS011;57205;51.438;-2.006;2022-08-07T14:34:41;2.17;;;1.05;;
66667;SDS011;57205;51.438;-2.006;2022-08-07T14:37:09;4.53;;;1.13;;
66667;SDS011;57205;51.438;-2.006;2022-08-07T14:39:37;2.47;;;1.10;;
66667;SDS011;57205;51.438;-2.006;2022-08-07T14:42:09;2.97;;;1.40;;
66667;SDS011;57205;51.438;-2.006;2022-08-07T14:44:42;4.95;;;1.77;;
66667;SDS011;57205;51.438;-2.006;2022-08-07T14:47:11;5.05;;;2.20;;
66667;SDS011;57205;51.438;-2.006;2022-08-07T14:49:39;2.92;;;1.63;;
66667;SDS011;57205;51.438;-2.006;2022-08-07T14:52:07;3.33;;;1.60;;
66667;SDS011;57205;51.438;-2.006;2022-08-07T14:54:33;5.38;;;1.60;;
66667;SDS011;57205;51.438;-2.006;2022-08-07T14:57:02;2.45;;;1.48;;
66667;SDS011;57205;51.438;-2.006;2022-08-07T14:59:30;2.25;;;1.27;;
66667;SDS011;57205;51.438;-2.006;2022-08-07T15:02:09;2.90;;;1.42;;
66667;SDS011;57205;51.438;-2.006;2022-08-07T15:04:38;2.97;;;1.50;;
66667;SDS011;57205;51.438;-2.006;2022-08-07T15:07:08;4.00;;;1.83;;
66667;SDS011;57205;51.438;-2.006;2022-08-07T15:09:39;5.53;;;2.70;;
66667;SDS011;57205;51.438;-2.006;2022-08-07T15:12:08;4.97;;;3.08;;
66667;SDS011;57205;51.438;-2.006;2022-08-07T15:14:35;4.60;;;2.95;;
66667;SDS011;57205;51.438;-2.006;2022-08-07T15:17:13;6.78;;;3.75;;
66667;SDS011;57205;51.438;-2.006;2022-08-07T15:19:46;7.40;;;4.38;;
66667;SDS011;57205;51.438;-2.006;2022-08-07T15:22:14;8.73;;;4.65;;
66667;SDS011;57205;51.438;-2.006;2022-08-07T15:24:41;15.20;;;5.78;;
66667;SDS011;57205;51.438;-2.006;2022-08-07T15:27:18;8.45;;;4.93;;
66667;SDS011;57205;51.438;-2.006;2022-08-07T15:29:52;8.52;;;5.15;;
66667;SDS011;57205;51.438;-2.006;2022-08-07T15:32:23;8.00;;;5.07;;
66667;SDS011;57205;51.438;-2.006;2022-08-07T15:34:50;6.47;;;3.72;;
66667;SDS011;57205;51.438;-2.006;2022-08-07T15:37:19;6.25;;;3.22;;
66667;SDS011;57205;51.438;-2.006;2022-08-07T15:39:53;6.63;;;3.17;;
66667;SDS011;57205;51.438;-2.006;2022-08-07T15:45:40;5.07;;;2.78;;
66667;SDS011;57205;51.438;-2.006;2022-08-07T15:50:36;4.22;;;2.58;;
66667;SDS011;57205;51.438;-2.006;2022-08-07T15:53:07;3.65;;;2.30;;
66667;SDS011;57205;51.438;-2.006;2022-08-07T15:55:39;3.70;;;2.03;;
66667;SDS011;57205;51.438;-2.006;2022-08-07T15:58:08;3.05;;;1.30;;
66667;SDS011;57205;51.438;-2.006;2022-08-07T16:00:37;4.85;;;1.00;;
66667;SDS011;57205;51.438;-2.006;2022-08-07T16:03:07;3.47;;;1.40;;
66667;SDS011;57205;51.438;-2.006;2022-08-07T16:05:38;2.38;;;1.10;;
66667;SDS011;57205;51.438;-2.006;2022-08-07T16:08:10;2.08;;;1.20;;
66667;SDS011;57205;51.438;-2.006;2022-08-07T16:10:40;2.78;;;1.40;;
66667;SDS011;57205;51.438;-2.006;2022-08-07T16:15:52;5.43;;;1.83;;
66667;SDS011;57205;51.438;-2.006;2022-08-07T16:32:18;3.38;;;0.95;;
66667;SDS011;57205;51.438;-2.006;2022-08-07T16:34:55;3.58;;;1.35;;
66667;SDS011;57205;51.438;-2.006;2022-08-07T16:40:03;3.22;;;1.17;;
66667;SDS011;57205;51.438;-2.006;2022-08-07T16:56:40;1.83;;;0.90;;
66667;SDS011;57205;51.438;-2.006;2022-08-07T16:59:17;4.03;;;1.10;;
66667;SDS011;57205;51.438;-2.006;2022-08-07T17:05:07;3.15;;;1.10;;
66667;SDS011;57205;51.438;-2.006;2022-08-07T17:10:18;8.38;;;1.55;;
66667;SDS011;57205;51.438;-2.006;2022-08-07T17:15:30;1.92;;;0.90;;
66667;SDS011;57205;51.438;-2.006;2022-08-07T17:20:49;3.92;;;1.17;;
66667;SDS011;57205;51.438;-2.006;2022-08-07T17:31:37;2.08;;;1.17;;
66667;SDS011;57205;51.438;-2.006;2022-08-07T17:34:28;2.35;;;1.20;;
66667;SDS011;57205;51.438;-2.006;2022-08-07T17:37:03;3.35;;;1.80;;
66667;SDS011;57205;51.438;-2.006;2022-08-07T17:45:11;3.85;;;1.35;;
66667;SDS011;57205;51.438;-2.006;2022-08-07T17:47:47;3.55;;;1.83;;
66667;SDS011;57205;51.438;-2.006;2022-08-07T17:50:27;4.05;;;1.50;;
66667;SDS011;57205;51.438;-2.006;2022-08-07T17:52:59;7.80;;;2.05;;
66667;SDS011;57205;51.438;-2.006;2022-08-07T17:55:36;4.60;;;1.80;;
66667;SDS011;57205;51.438;-2.006;2022-08-07T17:58:17;2.78;;;1.42;;
66667;SDS011;57205;51.438;-2.006;2022-08-07T18:01:09;3.85;;;1.45;;
66667;SDS011;57205;51.438;-2.006;2022-08-07T18:06:11;3.03;;;1.25;;
66667;SDS011;57205;51.438;-2.006;2022-08-07T18:12:06;6.15;;;1.42;;
66667;SDS011;57205;51.438;-2.006;2022-08-07T18:16:58;2.25;;;1.10;;
66667;SDS011;57205;51.438;-2.006;2022-08-07T18:19:39;3.20;;;1.40;;
66667;SDS011;57205;51.438;-2.006;2022-08-07T18:22:14;3.72;;;1.90;;
66667;SDS011;57205;51.438;-2.006;2022-08-07T18:24:51;3.63;;;1.60;;
66667;SDS011;57205;51.438;-2.006;2022-08-07T18:30:43;13.07;;;2.10;;
66667;SDS011;57205;51.438;-2.006;2022-08-07T18:47:04;3.92;;;1.60;;
66667;SDS011;57205;51.438;-2.006;2022-08-07T18:55:18;5.75;;;2.72;;
66667;SDS011;57205;51.438;-2.006;2022-08-07T19:11:27;4.80;;;1.30;;